Time;durP1;ratioP1;P1;durP2;ratioP2;P2;SDS_P1;SDS_P2;PMS_P1;PMS_P2;Temp;Humidity;BMP_temperature;BMP_pressure;BME280_temperature;BME280_humidity;BME280_pressure;Samples;Min_cycle;Max_cycle;Signal;HPM_P1;HPM_P2
2023/04/02 00:02:29;;;;;;;5.53;2.43;;;10.00;99.90;;;;;;5044411;28;20967;-73
2023/04/02 00:05:50;;;;;;;5.93;2.73;;;10.00;99.90;;;;;;5041518;28;20476;-73
2023/04/02 00:08:39;;;;;;;4.30;1.97;;;10.00;99.90;;;;;;5033802;28;20987;-73
2023/04/02 00:11:32;;;;;;;5.50;2.70;;;10.00;99.90;;;;;;5039274;28;21008;-73
2023/04/02 00:14:23;;;;;;;2.63;1.60;;;10.00;99.90;;;;;;5029817;28;20445;-73
2023/04/02 00:17:09;;;;;;;4.20;1.83;;;10.00;99.90;;;;;;5036471;28;20504;-73
2023/04/02 00:19:58;;;;;;;5.60;2.70;;;10.00;99.90;;;;;;5045400;28;20581;-73
2023/04/02 00:22:44;;;;;;;3.03;2.30;;;10.00;99.90;;;;;;5038638;28;20984;-73
2023/04/02 00:25:35;;;;;;;3.50;2.10;;;10.00;99.90;;;;;;5021555;28;21206;-73
2023/04/02 00:28:24;;;;;;;4.23;2.20;;;10.00;99.90;;;;;;5043346;28;20429;-73
2023/04/02 00:31:10;;;;;;;3.37;2.20;;;10.00;99.90;;;;;;5041351;28;20440;-73
2023/04/02 00:33:58;;;;;;;5.53;2.17;;;9.90;99.90;;;;;;5042012;28;21006;-73
2023/04/02 00:36:45;;;;;;;3.13;1.80;;;9.90;99.90;;;;;;5034078;28;20476;-73
2023/04/02 00:39:34;;;;;;;3.50;2.47;;;9.80;99.90;;;;;;5040495;28;20499;-74
2023/04/02 00:42:21;;;;;;;4.07;2.07;;;9.80;99.90;;;;;;5043867;28;20393;-73
2023/04/02 00:45:18;;;;;;;3.40;1.80;;;9.90;99.90;;;;;;5039131;28;20405;-73
2023/04/02 00:48:16;;;;;;;2.30;1.80;;;9.80;99.90;;;;;;5034508;28;20463;-73
2023/04/02 00:51:19;;;;;;;3.67;2.30;;;9.80;99.90;;;;;;5045507;28;20450;-73
2023/04/02 00:54:14;;;;;;;2.97;2.10;;;9.80;99.90;;;;;;5039140;28;20784;-74
2023/04/02 00:57:01;;;;;;;5.80;2.10;;;9.80;99.90;;;;;;5026781;28;20533;-73
2023/04/02 00:59:55;;;;;;;4.80;1.97;;;9.80;99.90;;;;;;5038771;28;20435;-73
2023/04/02 01:02:43;;;;;;;4.33;2.27;;;9.80;99.90;;;;;;5039600;28;20433;-73
2023/04/02 01:05:34;;;;;;;3.33;2.47;;;9.80;99.90;;;;;;5023935;28;20601;-73
2023/04/02 01:08:27;;;;;;;8.27;2.80;;;9.80;99.90;;;;;;5026326;28;20428;-73
2023/04/02 01:11:25;;;;;;;4.17;2.70;;;9.90;99.90;;;;;;5044827;28;20450;-73
2023/04/02 01:14:19;;;;;;;3.30;2.67;;;9.80;99.90;;;;;;5045971;28;20461;-73
2023/04/02 01:17:21;;;;;;;5.60;2.77;;;9.70;99.90;;;;;;5026692;28;21021;-73
2023/04/02 01:20:46;;;;;;;6.53;3.00;;;9.70;99.90;;;;;;5044761;28;20953;-73
2023/04/02 01:23:37;;;;;;;4.10;2.30;;;9.70;99.90;;;;;;5024870;28;20429;-73
2023/04/02 01:26:36;;;;;;;4.43;2.17;;;9.70;99.90;;;;;;5027660;28;20457;-73
2023/04/02 01:29:27;;;;;;;6.30;2.50;;;9.80;99.90;;;;;;5023956;28;20405;-74
2023/04/02 01:32:16;;;;;;;4.53;2.27;;;9.80;99.90;;;;;;5035744;28;20438;-73
2023/04/02 01:35:02;;;;;;;4.70;2.17;;;9.80;99.90;;;;;;5037646;28;20448;-73
2023/04/02 01:37:54;;;;;;;6.20;2.53;;;9.70;99.90;;;;;;5038344;28;20449;-73
2023/04/02 01:40:47;;;;;;;7.77;2.20;;;9.80;99.90;;;;;;5039655;28;20457;-73
2023/04/02 01:43:41;;;;;;;6.40;2.60;;;9.80;99.90;;;;;;5037596;28;20426;-73
2023/04/02 01:46:30;;;;;;;9.43;4.03;;;9.70;99.90;;;;;;5023811;28;20797;-73
2023/04/02 01:49:20;;;;;;;4.83;2.63;;;9.70;99.90;;;;;;5043822;28;20430;-73
2023/04/02 01:52:06;;;;;;;3.20;2.20;;;9.70;99.90;;;;;;5031194;28;20444;-73
2023/04/02 01:54:52;;;;;;;3.50;2.33;;;9.80;99.90;;;;;;5024379;28;20574;-73
2023/04/02 01:57:39;;;;;;;4.20;2.70;;;9.80;99.90;;;;;;5038907;28;20481;-73
2023/04/02 02:00:28;;;;;;;3.23;2.40;;;9.80;99.90;;;;;;5028892;28;20473;-74
2023/04/02 02:03:16;;;;;;;3.13;2.80;;;9.80;99.90;;;;;;5041152;28;20400;-73
2023/04/02 02:06:03;;;;;;;3.77;2.60;;;9.80;99.90;;;;;;5031144;28;20567;-73
2023/04/02 02:08:53;;;;;;;3.10;2.80;;;9.80;99.90;;;;;;5025201;28;20419;-73
2023/04/02 02:11:39;;;;;;;3.83;3.30;;;9.80;99.90;;;;;;5036280;28;20501;-73
2023/04/02 02:14:27;;;;;;;4.60;2.60;;;9.80;99.90;;;;;;5030589;28;20459;-73
2023/04/02 02:17:15;;;;;;;8.67;3.17;;;9.70;99.90;;;;;;5033429;28;20472;-73
2023/04/02 02:20:08;;;;;;;4.73;3.10;;;9.70;99.90;;;;;;5042234;28;20430;-74
2023/04/02 02:22:53;;;;;;;5.17;2.63;;;9.70;99.90;;;;;;5042298;28;20515;-73
2023/04/02 02:25:40;;;;;;;4.93;2.70;;;9.80;99.90;;;;;;5021938;28;20466;-73
2023/04/02 02:28:29;;;;;;;5.00;2.70;;;9.80;99.90;;;;;;5029081;28;20401;-73
2023/04/02 02:31:19;;;;;;;5.30;3.03;;;9.80;99.90;;;;;;5040556;28;20596;-73
2023/04/02 02:34:09;;;;;;;4.13;2.93;;;9.80;99.90;;;;;;5031670;28;20445;-73
2023/04/02 02:37:02;;;;;;;9.03;3.13;;;9.80;99.90;;;;;;5040750;28;20570;-73
2023/04/02 02:39:53;;;;;;;3.30;2.30;;;9.80;99.90;;;;;;5041860;28;20462;-73
2023/04/02 02:42:42;;;;;;;3.90;2.90;;;9.80;99.90;;;;;;5035290;28;20453;-73
2023/04/02 02:45:33;;;;;;;6.07;3.30;;;9.80;99.90;;;;;;5020504;28;20796;-73
2023/04/02 02:48:23;;;;;;;7.93;2.93;;;9.90;99.90;;;;;;5031270;28;20484;-73
2023/04/02 02:51:17;;;;;;;4.33;2.93;;;9.90;99.90;;;;;;5034268;28;20982;-74
2023/04/02 02:54:06;;;;;;;3.80;2.90;;;9.90;99.90;;;;;;5030384;28;20447;-73
2023/04/02 02:56:57;;;;;;;8.60;3.97;;;9.80;99.90;;;;;;5042722;28;20438;-73
2023/04/02 02:59:44;;;;;;;5.50;3.03;;;9.70;99.90;;;;;;5036530;28;20431;-74
2023/04/02 03:02:30;;;;;;;4.40;3.80;;;9.70;99.90;;;;;;5035330;28;20430;-73
2023/04/02 03:05:19;;;;;;;4.17;3.57;;;9.80;99.90;;;;;;5026991;28;20450;-73
2023/04/02 03:08:11;;;;;;;6.10;3.30;;;9.80;99.90;;;;;;5045687;28;20428;-73
2023/04/02 03:11:05;;;;;;;7.00;3.63;;;9.80;99.90;;;;;;5047209;28;20424;-73
2023/04/02 03:13:53;;;;;;;5.37;3.50;;;9.80;99.90;;;;;;5031684;28;21008;-73
2023/04/02 03:16:42;;;;;;;6.10;3.57;;;9.90;99.90;;;;;;5038028;28;20571;-74
2023/04/02 03:19:35;;;;;;;7.00;4.07;;;9.80;99.90;;;;;;5034239;28;20793;-73
2023/04/02 03:22:26;;;;;;;3.70;3.10;;;9.90;99.90;;;;;;5035176;28;20429;-74
2023/04/02 03:25:23;;;;;;;5.10;3.77;;;9.90;99.90;;;;;;5030892;28;20436;-73
2023/04/02 03:28:16;;;;;;;9.83;4.13;;;9.90;99.90;;;;;;5044009;28;20804;-73
2023/04/02 03:31:06;;;;;;;6.10;3.37;;;10.00;99.90;;;;;;5047626;28;20996;-74
2023/04/02 03:33:55;;;;;;;6.90;4.00;;;10.00;99.90;;;;;;5030058;28;20825;-73
2023/04/02 03:36:47;;;;;;;6.37;3.73;;;9.90;99.90;;;;;;5031165;28;20799;-73
2023/04/02 03:39:39;;;;;;;4.73;4.20;;;9.80;99.90;;;;;;5034520;28;20428;-74
2023/04/02 03:42:26;;;;;;;5.23;4.30;;;9.80;99.90;;;;;;5034059;28;20747;-74
2023/04/02 03:45:20;;;;;;;7.23;4.90;;;9.80;99.90;;;;;;5032033;28;20593;-73
2023/04/02 03:48:11;;;;;;;6.93;4.40;;;9.80;99.90;;;;;;5041965;28;20486;-74
2023/04/02 03:51:03;;;;;;;6.40;4.60;;;9.70;99.90;;;;;;5030435;28;21093;-73
2023/04/02 03:53:49;;;;;;;6.10;4.47;;;9.80;99.90;;;;;;5030253;28;20454;-74
2023/04/02 03:56:39;;;;;;;7.23;4.47;;;9.80;99.90;;;;;;5035567;28;20429;-73
2023/04/02 03:59:34;;;;;;;9.90;4.67;;;9.80;99.90;;;;;;5032196;28;20425;-74
2023/04/02 04:02:34;;;;;;;7.83;5.27;;;9.80;99.90;;;;;;5032485;28;20535;-73
2023/04/02 04:05:24;;;;;;;5.13;4.33;;;9.80;99.90;;;;;;5033353;28;20433;-73
2023/04/02 04:08:16;;;;;;;9.50;4.73;;;9.80;99.90;;;;;;5041716;28;20436;-73
2023/04/02 04:11:07;;;;;;;9.83;4.87;;;9.80;99.90;;;;;;5031642;28;20446;-73
2023/04/02 04:14:00;;;;;;;5.20;4.70;;;9.80;99.90;;;;;;5025281;28;20952;-73
2023/04/02 04:16:53;;;;;;;5.27;4.50;;;9.80;99.90;;;;;;5030055;28;20431;-73
2023/04/02 04:19:45;;;;;;;6.43;4.37;;;9.80;99.90;;;;;;5033077;28;20438;-74
2023/04/02 04:22:31;;;;;;;6.10;4.40;;;9.90;99.90;;;;;;5025209;28;21532;-73
2023/04/02 04:25:22;;;;;;;8.63;4.70;;;9.90;99.90;;;;;;5037915;28;20440;-73
2023/04/02 04:28:19;;;;;;;6.90;5.20;;;9.90;99.90;;;;;;5033971;28;20420;-73
2023/04/02 04:31:16;;;;;;;6.33;5.37;;;9.80;99.90;;;;;;5034887;28;20615;-74
2023/04/02 04:34:08;;;;;;;6.00;5.10;;;9.80;99.90;;;;;;5029384;28;20455;-73
2023/04/02 04:37:00;;;;;;;8.30;5.23;;;9.80;99.90;;;;;;5045243;28;20431;-74
2023/04/02 04:39:50;;;;;;;6.40;5.57;;;9.80;99.90;;;;;;5030126;28;20434;-73
2023/04/02 04:42:39;;;;;;;5.67;4.80;;;9.90;99.90;;;;;;5028444;28;20444;-73
2023/04/02 04:45:37;;;;;;;8.27;4.80;;;9.90;99.90;;;;;;5031270;28;20450;-73
2023/04/02 04:48:27;;;;;;;8.23;5.80;;;9.90;99.90;;;;;;5034308;28;20423;-73
2023/04/02 04:51:19;;;;;;;6.90;6.23;;;10.00;99.90;;;;;;5033361;28;20461;-74
2023/04/02 04:54:12;;;;;;;7.00;6.00;;;10.00;99.90;;;;;;5026359;28;20444;-74
2023/04/02 04:57:01;;;;;;;6.33;5.73;;;10.00;99.90;;;;;;5034523;28;20490;-74
2023/04/02 04:59:55;;;;;;;6.90;5.80;;;10.00;99.90;;;;;;5043951;28;20423;-74
2023/04/02 05:02:47;;;;;;;7.60;6.07;;;10.00;99.90;;;;;;5035683;28;20473;-74
2023/04/02 05:05:37;;;;;;;9.10;6.83;;;9.90;99.90;;;;;;5037353;28;20509;-74
2023/04/02 05:08:30;;;;;;;8.73;6.10;;;9.80;99.90;;;;;;5029204;28;20391;-74
2023/04/02 05:11:26;;;;;;;11.03;6.13;;;9.90;99.90;;;;;;5037118;28;20926;-73
2023/04/02 05:14:21;;;;;;;8.50;6.23;;;9.90;99.90;;;;;;5030094;28;20571;-74
2023/04/02 05:17:10;;;;;;;8.47;6.43;;;9.90;99.90;;;;;;5036868;28;20434;-74
2023/04/02 05:20:00;;;;;;;7.47;6.77;;;10.00;99.90;;;;;;5031793;28;20445;-73
2023/04/02 05:22:49;;;;;;;14.83;7.20;;;9.90;99.90;;;;;;5031099;28;20451;-74
2023/04/02 05:25:34;;;;;;;8.73;7.17;;;9.90;99.90;;;;;;5028690;28;20956;-74
2023/04/02 05:28:29;;;;;;;10.77;7.10;;;9.90;99.90;;;;;;5032105;28;20538;-73
2023/04/02 05:31:21;;;;;;;11.57;6.53;;;10.00;99.90;;;;;;5041314;28;20437;-73
2023/04/02 05:34:07;;;;;;;7.67;6.67;;;10.00;99.90;;;;;;5026028;28;20457;-74
2023/04/02 05:36:54;;;;;;;9.57;8.10;;;10.00;99.90;;;;;;5038159;28;20491;-74
2023/04/02 05:39:45;;;;;;;7.90;6.83;;;9.90;99.90;;;;;;5032652;28;20639;-74
2023/04/02 05:42:35;;;;;;;9.30;6.40;;;10.00;99.90;;;;;;5018308;28;20456;-74
2023/04/02 05:45:30;;;;;;;9.07;6.70;;;9.90;99.90;;;;;;5032472;28;20499;-74
2023/04/02 05:48:19;;;;;;;8.63;7.17;;;9.90;99.90;;;;;;5035263;28;20416;-74
2023/04/02 05:51:09;;;;;;;6.93;6.33;;;10.00;99.90;;;;;;5040000;28;20452;-74
2023/04/02 05:53:57;;;;;;;8.20;6.30;;;10.00;99.90;;;;;;5026850;28;20450;-74
2023/04/02 05:56:47;;;;;;;10.33;5.83;;;10.10;99.90;;;;;;5039302;28;20441;-74
2023/04/02 05:59:38;;;;;;;12.60;7.63;;;10.00;99.90;;;;;;5031764;28;21047;-73
2023/04/02 06:02:31;;;;;;;8.27;6.33;;;9.90;99.90;;;;;;5035945;28;20594;-73
2023/04/02 06:05:22;;;;;;;7.53;6.67;;;10.00;99.90;;;;;;5043410;28;20832;-73
2023/04/02 06:08:15;;;;;;;7.90;6.40;;;10.00;99.90;;;;;;5032925;28;20797;-74
2023/04/02 06:11:07;;;;;;;8.70;7.30;;;9.90;99.90;;;;;;5031207;28;20835;-74
2023/04/02 06:13:53;;;;;;;7.53;6.23;;;9.90;99.90;;;;;;5025067;28;20433;-74
2023/04/02 06:16:40;;;;;;;9.40;7.50;;;10.00;99.90;;;;;;5036246;28;20439;-73
2023/04/02 06:19:31;;;;;;;8.93;6.13;;;9.90;99.90;;;;;;5029240;28;20616;-73
2023/04/02 06:22:23;;;;;;;11.40;7.27;;;10.00;99.90;;;;;;5032988;28;20453;-74
2023/04/02 06:25:15;;;;;;;10.10;7.20;;;10.00;99.90;;;;;;5027112;28;20432;-73
2023/04/02 06:28:04;;;;;;;8.57;6.00;;;10.00;99.90;;;;;;5040541;28;20556;-73
2023/04/02 06:30:52;;;;;;;8.63;6.40;;;10.10;99.90;;;;;;5041212;28;20465;-74
2023/04/02 06:33:38;;;;;;;11.77;6.70;;;10.10;99.90;;;;;;5043594;28;20448;-73
2023/04/02 06:36:27;;;;;;;7.43;6.27;;;10.20;99.90;;;;;;5036538;28;20421;-73
2023/04/02 06:39:19;;;;;;;7.13;6.43;;;10.20;99.90;;;;;;5045682;28;20550;-74
2023/04/02 06:42:08;;;;;;;9.23;5.43;;;10.20;99.90;;;;;;5033853;28;20454;-74
2023/04/02 06:44:54;;;;;;;7.30;5.77;;;10.30;99.90;;;;;;5039518;28;20570;-74
2023/04/02 06:47:45;;;;;;;5.57;4.70;;;10.30;99.90;;;;;;5035791;28;20478;-74
2023/04/02 06:50:45;;;;;;;6.30;5.10;;;10.30;99.90;;;;;;5035919;28;20498;-74
2023/04/02 06:53:36;;;;;;;6.23;4.37;;;10.30;99.90;;;;;;5028874;28;20434;-73
2023/04/02 06:56:32;;;;;;;6.30;5.00;;;10.30;99.90;;;;;;5038641;28;20430;-73
2023/04/02 06:59:18;;;;;;;7.47;4.67;;;10.30;99.90;;;;;;5045247;28;20487;-73
2023/04/02 07:02:16;;;;;;;18.73;4.50;;;10.30;99.90;;;;;;5029027;28;20455;-73
2023/04/02 07:05:04;;;;;;;6.53;4.60;;;10.30;99.90;;;;;;5040514;28;20430;-74
2023/04/02 07:07:50;;;;;;;6.90;5.03;;;10.30;99.90;;;;;;5034009;28;21080;-73
2023/04/02 07:10:37;;;;;;;10.27;4.83;;;10.30;99.90;;;;;;5033949;28;20475;-74
2023/04/02 07:13:24;;;;;;;6.03;5.43;;;10.30;99.90;;;;;;5040990;28;20422;-73
2023/04/02 07:16:15;;;;;;;9.63;7.03;;;10.40;99.90;;;;;;5035674;28;20568;-73
2023/04/02 07:19:02;;;;;;;9.27;5.90;;;10.40;99.90;;;;;;5042903;28;20506;-73
2023/04/02 07:21:48;;;;;;;5.40;4.90;;;10.40;99.90;;;;;;5027501;28;20482;-73
2023/04/02 07:24:33;;;;;;;5.20;4.70;;;10.30;99.90;;;;;;5034231;28;21053;-73
2023/04/02 07:27:21;;;;;;;6.90;4.70;;;10.30;99.90;;;;;;5027836;28;20945;-73
2023/04/02 07:30:07;;;;;;;6.43;5.50;;;10.30;99.90;;;;;;5040983;28;20459;-74
2023/04/02 07:32:53;;;;;;;6.10;5.37;;;10.30;99.90;;;;;;5036844;28;20442;-74
2023/04/02 07:35:39;;;;;;;8.13;5.20;;;10.30;99.90;;;;;;5037831;28;20475;-73
2023/04/02 07:38:25;;;;;;;6.37;5.40;;;10.40;99.90;;;;;;5041335;28;21062;-73
2023/04/02 07:41:11;;;;;;;6.63;5.00;;;10.40;99.90;;;;;;5033414;28;20586;-73
2023/04/02 07:43:58;;;;;;;5.40;4.60;;;10.30;99.90;;;;;;5031704;28;20469;-73
2023/04/02 07:46:43;;;;;;;6.60;4.50;;;10.20;99.90;;;;;;5043029;28;20421;-73
2023/04/02 07:49:29;;;;;;;5.93;4.73;;;10.30;99.90;;;;;;5031745;28;21152;-73
2023/04/02 07:52:14;;;;;;;7.23;5.37;;;10.20;99.90;;;;;;5027749;28;20807;-73
2023/04/02 07:55:00;;;;;;;5.40;4.90;;;10.20;99.90;;;;;;5037718;28;20683;-74
2023/04/02 07:57:51;;;;;;;7.50;4.90;;;10.20;99.90;;;;;;5046010;28;20491;-73
2023/04/02 08:00:38;;;;;;;5.20;4.70;;;10.20;99.90;;;;;;5024600;28;20477;-74
2023/04/02 08:03:24;;;;;;;7.70;5.43;;;10.30;99.90;;;;;;5031947;28;20784;-73
2023/04/02 08:06:10;;;;;;;5.53;4.60;;;10.30;99.90;;;;;;5047576;28;20805;-73
2023/04/02 08:08:56;;;;;;;6.37;5.30;;;10.40;99.90;;;;;;5031152;28;20419;-73
2023/04/02 08:11:42;;;;;;;6.43;5.83;;;10.40;99.90;;;;;;5028975;28;20479;-74
2023/04/02 08:14:27;;;;;;;9.90;6.60;;;10.50;99.90;;;;;;5040023;28;20492;-73
2023/04/02 08:17:16;;;;;;;7.27;4.50;;;10.50;99.90;;;;;;5042370;28;20469;-73
2023/04/02 08:20:02;;;;;;;6.63;5.40;;;10.50;99.90;;;;;;5039071;28;20468;-73
2023/04/02 08:22:49;;;;;;;7.37;5.53;;;10.50;99.90;;;;;;5036323;28;20923;-73
2023/04/02 08:25:34;;;;;;;10.20;6.67;;;10.60;99.90;;;;;;5042894;28;20421;-73
2023/04/02 08:28:21;;;;;;;7.30;5.93;;;10.60;99.90;;;;;;5041476;28;20491;-73
2023/04/02 08:31:07;;;;;;;5.50;4.47;;;10.60;99.90;;;;;;5037748;28;20568;-73
2023/04/02 08:33:55;;;;;;;6.40;5.13;;;10.70;99.90;;;;;;5043777;28;20552;-73
2023/04/02 08:36:45;;;;;;;9.47;5.27;;;10.70;99.90;;;;;;5039725;28;20435;-73
2023/04/02 08:39:32;;;;;;;6.73;5.30;;;10.80;99.90;;;;;;5033514;28;20451;-73
2023/04/02 08:42:24;;;;;;;6.20;5.10;;;10.80;99.90;;;;;;5028520;28;20456;-73
2023/04/02 08:45:20;;;;;;;5.73;5.00;;;10.80;99.90;;;;;;5038770;28;20517;-74
2023/04/02 08:48:09;;;;;;;5.93;4.97;;;10.90;99.90;;;;;;5046932;28;20442;-73
2023/04/02 08:50:57;;;;;;;6.60;5.90;;;11.00;99.90;;;;;;5028510;28;20466;-73
2023/04/02 08:53:43;;;;;;;7.33;6.63;;;11.00;99.90;;;;;;5037567;28;20499;-73
2023/04/02 08:56:33;;;;;;;7.67;6.87;;;11.10;99.90;;;;;;5036668;28;20434;-73
2023/04/02 08:59:26;;;;;;;7.23;6.50;;;11.20;99.90;;;;;;5021976;28;20590;-74
2023/04/02 09:02:29;;;;;;;8.03;7.20;;;11.20;99.90;;;;;;5036449;28;20485;-73
2023/04/02 09:05:18;;;;;;;8.40;7.23;;;11.20;99.90;;;;;;5045106;28;21022;-73
2023/04/02 09:08:16;;;;;;;7.70;6.90;;;11.30;99.90;;;;;;5047504;28;20946;-73
2023/04/02 09:11:06;;;;;;;8.27;7.37;;;11.30;99.90;;;;;;5029398;28;20464;-74
2023/04/02 09:13:56;;;;;;;8.03;7.30;;;11.30;99.90;;;;;;5036677;28;20469;-73
2023/04/02 09:16:46;;;;;;;10.30;7.87;;;11.40;99.90;;;;;;5034528;28;20439;-73
2023/04/02 09:19:36;;;;;;;7.13;6.43;;;11.50;99.90;;;;;;5029867;28;20851;-74
2023/04/02 09:22:24;;;;;;;8.67;6.73;;;11.50;99.90;;;;;;5034807;28;20446;-74
2023/04/02 09:25:15;;;;;;;7.60;6.80;;;11.40;99.90;;;;;;5037297;28;20404;-74
2023/04/02 09:28:03;;;;;;;7.47;6.67;;;11.30;99.90;;;;;;5046021;28;20445;-74
2023/04/02 09:31:02;;;;;;;10.53;6.90;;;11.30;99.90;;;;;;5023391;28;20580;-74
2023/04/02 09:33:49;;;;;;;7.73;6.93;;;11.40;99.90;;;;;;5037523;28;20788;-74
2023/04/02 09:36:36;;;;;;;6.73;5.70;;;11.60;99.90;;;;;;5035556;28;20789;-74
2023/04/02 09:39:25;;;;;;;6.43;5.73;;;11.70;99.90;;;;;;5018971;28;20865;-73
2023/04/02 09:42:32;;;;;;;7.70;6.90;;;11.80;99.90;;;;;;5027364;28;20452;-74
2023/04/02 09:45:21;;;;;;;8.03;6.40;;;11.90;99.90;;;;;;5042042;28;20433;-73
2023/04/02 09:48:22;;;;;;;7.50;6.80;;;11.90;99.90;;;;;;5038393;28;20442;-73
2023/04/02 09:51:16;;;;;;;7.30;6.50;;;11.80;99.90;;;;;;5035043;28;20512;-73
2023/04/02 09:54:09;;;;;;;9.93;8.57;;;11.90;99.90;;;;;;5037764;28;20442;-73
2023/04/02 09:57:03;;;;;;;7.30;6.60;;;11.80;99.90;;;;;;5036508;28;20515;-73
2023/04/02 10:00:16;;;;;;;8.80;7.90;;;11.90;99.90;;;;;;5035811;28;20645;-73
2023/04/02 10:03:04;;;;;;;10.67;8.60;;;11.70;99.90;;;;;;5040975;28;20954;-73
2023/04/02 10:06:04;;;;;;;10.80;8.63;;;11.60;99.90;;;;;;5040326;28;20434;-73
2023/04/02 10:08:50;;;;;;;9.00;8.10;;;11.60;99.90;;;;;;5029445;28;20444;-73
2023/04/02 10:11:36;;;;;;;12.70;8.20;;;11.60;99.90;;;;;;5030165;28;20515;-73
2023/04/02 10:14:27;;;;;;;10.63;8.00;;;11.60;99.90;;;;;;5042199;28;20432;-74
2023/04/02 10:17:19;;;;;;;9.07;7.20;;;11.60;99.90;;;;;;5039456;28;20453;-74
2023/04/02 10:20:16;;;;;;;4.03;3.53;;;11.60;99.90;;;;;;5031921;28;20496;-73
2023/04/02 10:23:01;;;;;;;2.57;1.40;;;11.50;99.90;;;;;;5040258;28;20445;-73
2023/04/02 10:25:55;;;;;;;2.40;0.90;;;11.40;99.90;;;;;;5037172;28;20522;-74
2023/04/02 10:28:53;;;;;;;1.20;0.50;;;11.30;99.90;;;;;;5027065;28;20813;-74
2023/04/02 10:31:46;;;;;;;1.30;0.70;;;11.10;99.90;;;;;;5036666;28;20501;-73
2023/04/02 10:34:43;;;;;;;1.60;1.00;;;11.10;99.90;;;;;;5033189;28;21161;-73
2023/04/02 10:37:55;;;;;;;3.33;0.87;;;11.00;99.90;;;;;;5028529;28;20429;-73
2023/04/02 10:40:46;;;;;;;1.50;0.80;;;10.90;99.90;;;;;;5034867;28;20556;-73
2023/04/02 10:43:46;;;;;;;1.53;1.00;;;11.00;99.90;;;;;;5039374;28;20429;-73
2023/04/02 10:46:41;;;;;;;1.10;0.60;;;10.90;99.90;;;;;;5037044;28;20423;-73
2023/04/02 10:49:36;;;;;;;1.50;0.67;;;10.90;99.90;;;;;;5028935;28;20447;-73
2023/04/02 10:52:29;;;;;;;1.80;0.90;;;10.90;99.90;;;;;;5042857;28;20433;-73
2023/04/02 10:55:20;;;;;;;3.00;1.00;;;10.90;99.90;;;;;;5037256;28;20436;-73
2023/04/02 10:58:12;;;;;;;1.60;0.93;;;10.90;99.90;;;;;;5034644;28;20444;-73
2023/04/02 11:01:03;;;;;;;1.70;1.10;;;11.00;99.90;;;;;;5037404;28;20476;-74
2023/04/02 11:03:54;;;;;;;2.67;1.40;;;11.10;99.90;;;;;;5041689;28;20435;-73
2023/04/02 11:06:46;;;;;;;4.77;2.00;;;11.10;99.90;;;;;;5030119;28;20958;-74
2023/04/02 11:09:40;;;;;;;1.30;0.77;;;11.10;99.90;;;;;;5018897;28;20452;-74
2023/04/02 11:12:39;;;;;;;1.30;0.70;;;11.10;99.90;;;;;;5039753;28;20548;-73
2023/04/02 11:15:26;;;;;;;1.30;0.70;;;11.00;99.90;;;;;;5040519;28;20427;-74
2023/04/02 11:18:28;;;;;;;1.30;0.70;;;10.90;99.90;;;;;;5033203;28;20454;-73
2023/04/02 11:21:39;;;;;;;1.50;0.90;;;11.00;99.90;;;;;;5044110;28;21099;-73
2023/04/02 11:24:32;;;;;;;3.10;0.70;;;10.90;99.90;;;;;;5017753;28;20453;-72
2023/04/02 11:27:26;;;;;;;1.70;1.00;;;10.90;99.90;;;;;;5037203;28;20446;-73
2023/04/02 11:30:22;;;;;;;1.40;0.80;;;10.90;99.90;;;;;;5037626;28;20612;-73
2023/04/02 11:33:38;;;;;;;2.73;0.80;;;10.70;99.90;;;;;;5035001;28;20825;-73
2023/04/02 11:37:03;;;;;;;1.20;0.70;;;10.60;99.90;;;;;;5018251;28;20458;-73
2023/04/02 11:39:54;;;;;;;1.40;0.80;;;10.60;99.90;;;;;;5029503;28;20491;-73
2023/04/02 11:42:42;;;;;;;1.47;0.90;;;10.70;99.90;;;;;;5033999;28;20451;-73
2023/04/02 11:45:57;;;;;;;1.33;0.90;;;10.60;99.90;;;;;;5035278;28;20426;-73
2023/04/02 11:48:43;;;;;;;1.53;0.83;;;10.60;99.90;;;;;;5020642;28;20493;-73
2023/04/02 11:51:48;;;;;;;5.40;2.40;;;10.60;99.90;;;;;;5029030;28;20450;-73
2023/04/02 11:54:37;;;;;;;3.13;1.40;;;10.50;99.90;;;;;;5040565;28;20436;-73
2023/04/02 11:57:47;;;;;;;2.47;1.60;;;10.50;99.90;;;;;;5032281;28;20435;-73
2023/04/02 12:00:59;;;;;;;2.13;1.30;;;10.50;99.90;;;;;;5036747;28;20555;-73
2023/04/02 12:04:17;;;;;;;4.40;2.80;;;10.50;99.90;;;;;;5030359;28;20555;-73
2023/04/02 12:07:33;;;;;;;5.43;3.00;;;10.40;99.90;;;;;;5041065;28;20558;-73
2023/04/02 12:10:21;;;;;;;3.90;2.40;;;10.40;99.90;;;;;;5042797;28;20448;-73
2023/04/02 12:13:18;;;;;;;3.00;1.80;;;10.50;99.90;;;;;;5026896;28;20534;-73
2023/04/02 12:16:07;;;;;;;2.73;1.27;;;10.50;99.90;;;;;;5037671;28;20432;-73
2023/04/02 12:18:53;;;;;;;10.70;2.30;;;10.40;99.90;;;;;;5033890;28;20443;-73
2023/04/02 12:21:47;;;;;;;3.00;1.20;;;10.40;99.90;;;;;;5012243;28;20482;-73
2023/04/02 12:24:32;;;;;;;3.00;1.67;;;10.50;99.90;;;;;;5033955;28;20436;-73
2023/04/02 12:27:21;;;;;;;2.60;1.20;;;10.50;99.90;;;;;;5036093;28;20437;-73
2023/04/02 12:30:17;;;;;;;2.57;1.57;;;10.50;99.90;;;;;;5036932;28;20455;-73
2023/04/02 12:33:27;;;;;;;2.03;0.87;;;10.50;99.90;;;;;;5025832;28;20458;-73
2023/04/02 12:36:20;;;;;;;1.20;0.73;;;10.60;99.90;;;;;;5046135;28;21055;-73
2023/04/02 12:39:17;;;;;;;2.00;1.00;;;10.60;99.90;;;;;;5040689;28;20397;-73
2023/04/02 12:42:02;;;;;;;4.10;1.37;;;10.50;99.90;;;;;;5033572;28;20511;-73
2023/04/02 12:44:49;;;;;;;2.90;1.20;;;10.40;99.90;;;;;;5029433;28;20440;-73
2023/04/02 12:47:35;;;;;;;2.03;1.10;;;10.30;99.90;;;;;;5026310;28;20838;-73
2023/04/02 12:50:23;;;;;;;1.40;0.80;;;10.30;99.90;;;;;;5024744;28;20471;-73
2023/04/02 12:53:19;;;;;;;3.20;1.00;;;10.40;99.90;;;;;;5031672;28;20503;-73
2023/04/02 12:56:07;;;;;;;1.63;1.07;;;10.50;99.90;;;;;;5026327;28;20439;-73
2023/04/02 12:58:54;;;;;;;1.30;0.80;;;10.60;99.90;;;;;;5024231;28;20608;-73
2023/04/02 13:01:55;;;;;;;2.33;1.30;;;10.70;99.90;;;;;;5030941;28;20473;-73
2023/04/02 13:04:47;;;;;;;1.20;0.77;;;10.70;99.90;;;;;;5034252;28;20446;-73
2023/04/02 13:07:34;;;;;;;2.50;1.00;;;10.70;99.90;;;;;;5033677;28;20967;-73
2023/04/02 13:10:24;;;;;;;2.80;0.90;;;10.70;99.90;;;;;;5015918;28;20440;-73
2023/04/02 13:13:16;;;;;;;1.50;0.90;;;10.80;99.90;;;;;;5027093;28;20431;-73
2023/04/02 13:16:05;;;;;;;3.13;1.07;;;10.80;99.90;;;;;;5038061;28;20465;-73
2023/04/02 13:18:51;;;;;;;1.67;1.00;;;10.80;99.90;;;;;;5026646;28;20439;-73
2023/04/02 13:21:37;;;;;;;2.73;1.53;;;10.70;99.90;;;;;;5028133;28;20564;-73
2023/04/02 13:24:26;;;;;;;3.80;1.60;;;10.80;99.90;;;;;;5019613;28;21243;-73
2023/04/02 13:27:11;;;;;;;1.90;1.17;;;10.70;99.90;;;;;;5019829;28;20444;-73
2023/04/02 13:30:08;;;;;;;1.87;0.70;;;10.70;99.90;;;;;;5028550;28;20470;-73
2023/04/02 13:32:54;;;;;;;3.20;1.00;;;10.70;99.90;;;;;;5025281;28;20808;-73
2023/04/02 13:35:40;;;;;;;2.47;1.30;;;10.70;99.90;;;;;;5029859;28;20506;-73
2023/04/02 13:38:25;;;;;;;1.40;0.70;;;10.70;99.90;;;;;;5027004;28;20425;-73
2023/04/02 13:41:21;;;;;;;1.53;0.77;;;10.80;99.90;;;;;;5019054;28;20535;-73
2023/04/02 13:44:07;;;;;;;2.00;1.17;;;10.80;99.90;;;;;;5030959;28;20426;-73
2023/04/02 13:46:53;;;;;;;2.10;1.10;;;10.70;99.90;;;;;;5029372;28;20447;-73
2023/04/02 13:49:39;;;;;;;1.80;0.90;;;10.60;99.90;;;;;;5023044;28;20467;-72
2023/04/02 13:52:25;;;;;;;2.20;0.80;;;10.60;99.90;;;;;;5032100;28;20584;-73
2023/04/02 13:55:11;;;;;;;1.77;0.80;;;10.60;99.90;;;;;;5032896;28;20428;-73
2023/04/02 13:57:58;;;;;;;2.33;1.33;;;10.60;99.90;;;;;;5040565;28;20432;-73
2023/04/02 14:00:44;;;;;;;2.27;0.93;;;10.60;99.90;;;;;;5028739;28;21091;-73
2023/04/02 14:03:30;;;;;;;1.93;0.80;;;10.60;99.90;;;;;;5029262;28;20915;-73
2023/04/02 14:06:25;;;;;;;1.80;0.80;;;10.60;99.90;;;;;;5045703;28;20551;-73
2023/04/02 14:09:19;;;;;;;1.50;0.80;;;10.50;99.90;;;;;;5039752;28;20444;-73
2023/04/02 14:12:15;;;;;;;2.07;1.10;;;10.50;99.90;;;;;;5029972;28;20530;-73
2023/04/02 14:15:16;;;;;;;1.40;0.80;;;10.40;99.90;;;;;;5024070;28;21009;-73
2023/04/02 14:18:21;;;;;;;1.90;0.90;;;10.30;99.90;;;;;;5041213;28;20433;-73
2023/04/02 14:21:16;;;;;;;1.40;0.80;;;10.20;99.90;;;;;;5028435;28;20470;-73
2023/04/02 14:24:18;;;;;;;2.53;1.47;;;10.10;99.90;;;;;;5037190;28;20438;-73
2023/04/02 14:27:22;;;;;;;1.67;0.90;;;10.10;99.90;;;;;;5030213;28;20456;-73
2023/04/02 14:30:17;;;;;;;1.60;1.00;;;10.00;99.90;;;;;;5031513;28;20537;-73
2023/04/02 14:33:09;;;;;;;2.27;1.00;;;10.00;99.90;;;;;;5028809;28;20453;-72
2023/04/02 14:35:59;;;;;;;1.70;0.80;;;9.90;99.90;;;;;;5040029;28;20940;-72
2023/04/02 14:38:54;;;;;;;2.87;1.00;;;9.80;99.90;;;;;;5019167;28;20426;-72
2023/04/02 14:41:45;;;;;;;1.50;0.90;;;9.70;99.90;;;;;;5029754;28;20456;-72
2023/04/02 14:44:37;;;;;;;2.20;1.07;;;9.60;99.90;;;;;;5031166;28;20434;-72
2023/04/02 14:47:29;;;;;;;3.23;1.43;;;9.60;99.90;;;;;;5031304;28;20438;-72
2023/04/02 14:50:19;;;;;;;1.80;1.40;;;9.70;99.90;;;;;;5016137;28;20994;-72
2023/04/02 14:53:11;;;;;;;4.20;2.00;;;9.70;99.90;;;;;;5034600;28;20440;-73
2023/04/02 14:56:01;;;;;;;1.80;1.20;;;9.70;99.90;;;;;;5042268;28;20483;-73
2023/04/02 14:58:51;;;;;;;1.93;1.20;;;9.60;99.90;;;;;;5038675;28;20991;-74